Wetterdaten: Woche 02.05.11 - 08.05.11 (KW18)
Datum Zeit Temp. Innen Temp. Aussen UV X Diff Temp. Feuchte Inne Feuchte Auss Sonnenschein Luftdruck Regen ab 0,1 Wind Sonnenschein T Regendauer Windben
02.05.2011 00:00 21,1 C 12,0 C 0,0 UV-I 0,0 C 41 % 48 % 0 % 1011,6 hPa 0,0 l/m 1,7 km/h (1 Bft) 0,00 h 0,00 h 3,5 km/h (1 Bft)
02.05.2011 01:00 20,7 C 11,2 C 0,0 UV-I 0,0 C 41 % 51 % 0 % 1011,6 hPa 0,0 l/m 3,8 km/h (1 Bft) 0,00 h 0,00 h 6,7 km/h (2 Bft)
02.05.2011 02:00 20,5 C 10,2 C 0,0 UV-I 0,0 C 41 % 54 % 0 % 1011,5 hPa 0,0 l/m 2,5 km/h (1 Bft) 0,00 h 0,00 h 5,0 km/h (1 Bft)
02.05.2011 03:00 20,2 C 9,4 C 0,0 UV-I 0,0 C 41 % 56 % 0 % 1011,2 hPa 0,0 l/m 2,1 km/h (1 Bft) 0,00 h 0,00 h 3,9 km/h (1 Bft)
02.05.2011 04:00 20,0 C 8,6 C 0,0 UV-I 0,0 C 41 % 60 % 0 % 1011,0 hPa 0,0 l/m 1,2 km/h (1 Bft) 0,00 h 0,00 h 1,9 km/h (1 Bft)
02.05.2011 05:00 19,8 C 7,8 C 0,0 UV-I 0,0 C 42 % 63 % 0 % 1010,8 hPa 0,0 l/m 0,4 km/h (0 Bft) 0,00 h 0,00 h 1,5 km/h (1 Bft)
02.05.2011 06:00 19,5 C 7,0 C 0,0 UV-I 0,0 C 42 % 66 % 0 % 1010,5 hPa 0,0 l/m 1,0 km/h (0 Bft) 0,00 h 0,00 h 2,3 km/h (1 Bft)
02.05.2011 07:00 19,4 C 7,5 C 0,0 UV-I 0,0 C 42 % 67 % 0 % 1010,4 hPa 0,0 l/m 2,7 km/h (1 Bft) 0,00 h 0,00 h 4,8 km/h (1 Bft)
02.05.2011 08:00 19,2 C 8,9 C 0,4 UV-I 2,4 C 43 % 64 % 52 % 1010,7 hPa 0,0 l/m 5,4 km/h (1 Bft) 0,47 h 0,00 h 7,1 km/h (2 Bft)
02.05.2011 09:00 19,2 C 10,8 C 4,4 UV-I 6,0 C 42 % 59 % 100 % 1010,6 hPa 0,0 l/m 6,7 km/h (2 Bft) 1,00 h 0,00 h 8,4 km/h (2 Bft)
02.05.2011 10:00 19,4 C 12,5 C 6,3 UV-I 5,3 C 42 % 55 % 100 % 1010,4 hPa 0,0 l/m 7,4 km/h (2 Bft) 1,00 h 0,00 h 9,5 km/h (2 Bft)
02.05.2011 11:00 19,5 C 13,9 C 7,6 UV-I 5,9 C 42 % 48 % 100 % 1010,3 hPa 0,0 l/m 9,8 km/h (2 Bft) 1,00 h 0,00 h 11,5 km/h (2 Bft)
02.05.2011 12:00 19,8 C 15,1 C 2,5 UV-I 5,7 C 41 % 42 % 100 % 1010,0 hPa 0,0 l/m 10,3 km/h (2 Bft) 1,00 h 0,00 h 11,2 km/h (2 Bft)
02.05.2011 13:00 20,3 C 15,8 C 5,1 UV-I 5,5 C 40 % 40 % 100 % 1009,8 hPa 0,0 l/m 10,3 km/h (2 Bft) 1,00 h 0,00 h 11,2 km/h (2 Bft)
02.05.2011 14:00 21,7 C 16,3 C 5,6 UV-I 5,3 C 38 % 38 % 100 % 1010,1 hPa 0,0 l/m 9,9 km/h (2 Bft) 1,00 h 0,00 h 11,3 km/h (2 Bft)
02.05.2011 15:00 23,0 C 16,7 C 7,1 UV-I 5,1 C 36 % 37 % 100 % 1010,3 hPa 0,0 l/m 9,6 km/h (2 Bft) 1,00 h 0,00 h 8,3 km/h (2 Bft)
02.05.2011 16:00 23,8 C 16,5 C 6,7 UV-I 4,6 C 35 % 37 % 100 % 1010,2 hPa 0,0 l/m 9,9 km/h (2 Bft) 1,00 h 0,00 h 11,6 km/h (2 Bft)
02.05.2011 17:00 24,0 C 15,8 C 2,7 UV-I 3,6 C 34 % 38 % 89 % 1010,2 hPa 0,0 l/m 9,3 km/h (2 Bft) 0,80 h 0,00 h 9,8 km/h (2 Bft)
02.05.2011 18:00 23,6 C 14,4 C 1,2 UV-I 0,7 C 34 % 39 % 21 % 1009,9 hPa 0,0 l/m 9,1 km/h (2 Bft) 0,00 h 0,00 h 9,4 km/h (2 Bft)
02.05.2011 19:00 22,9 C 13,1 C 0,6 UV-I 0,0 C 35 % 41 % 0 % 1009,7 hPa 0,0 l/m 9,4 km/h (2 Bft) 0,00 h 0,00 h 9,6 km/h (2 Bft)
02.05.2011 20:00 22,1 C 11,6 C 0,1 UV-I 0,0 C 35 % 42 % 0 % 1010,0 hPa 0,0 l/m 10,1 km/h (2 Bft) 0,00 h 0,00 h 11,6 km/h (2 Bft)
02.05.2011 21:00 21,2 C 10,5 C 0,0 UV-I 0,0 C 36 % 45 % 0 % 1010,4 hPa 0,0 l/m 6,8 km/h (2 Bft) 0,00 h 0,00 h 7,5 km/h (2 Bft)
02.05.2011 22:00 20,5 C 10,0 C 0,0 UV-I 0,0 C 36 % 50 % 0 % 1010,9 hPa 0,0 l/m 7,6 km/h (2 Bft) 0,00 h 0,00 h 9,0 km/h (2 Bft)
02.05.2011 23:00 20,1 C 9,4 C 0,0 UV-I 0,0 C 37 % 54 % 0 % 1011,4 hPa 0,0 l/m 5,5 km/h (1 Bft) 0,00 h 0,00 h 5,8 km/h (2 Bft)
03.05.2011 00:00 19,8 C 8,5 C 0,0 UV-I 0,0 C 38 % 60 % 0 % 1011,7 hPa 0,0 l/m 3,5 km/h (1 Bft) 0,00 h 0,00 h 5,5 km/h (1 Bft)
03.05.2011 01:00 19,5 C 8,0 C 0,0 UV-I 0,0 C 39 % 64 % 0 % 1011,9 hPa 0,0 l/m 3,9 km/h (1 Bft) 0,00 h 0,00 h 4,1 km/h (1 Bft)
03.05.2011 02:00 19,2 C 7,3 C 0,0 UV-I 0,0 C 40 % 69 % 0 % 1012,0 hPa 0,0 l/m 4,3 km/h (1 Bft) 0,00 h 0,00 h 4,9 km/h (1 Bft)
03.05.2011 03:00 19,0 C 6,8 C 0,0 UV-I 0,0 C 40 % 71 % 0 % 1012,1 hPa 0,0 l/m 4,1 km/h (1 Bft) 0,00 h 0,00 h 4,8 km/h (1 Bft)
03.05.2011 04:00 18,8 C 6,4 C 0,0 UV-I 0,0 C 40 % 71 % 0 % 1012,0 hPa 0,0 l/m 2,7 km/h (1 Bft) 0,00 h 0,00 h 3,5 km/h (1 Bft)
03.05.2011 05:00 18,7 C 5,8 C 0,0 UV-I 0,0 C 41 % 68 % 0 % 1012,2 hPa 0,0 l/m 3,1 km/h (1 Bft) 0,00 h 0,00 h 4,3 km/h (1 Bft)
03.05.2011 06:00 18,5 C 5,0 C 0,0 UV-I 0,0 C 40 % 67 % 0 % 1012,7 hPa 0,0 l/m 3,0 km/h (1 Bft) 0,00 h 0,00 h 4,1 km/h (1 Bft)
03.05.2011 07:00 18,4 C 5,1 C 0,0 UV-I 0,0 C 40 % 67 % 0 % 1013,4 hPa 0,0 l/m 5,8 km/h (2 Bft) 0,00 h 0,00 h 7,8 km/h (2 Bft)
03.05.2011 08:00 18,3 C 6,2 C 0,2 UV-I 2,5 C 40 % 63 % 52 % 1014,0 hPa 0,0 l/m 7,3 km/h (2 Bft) 0,47 h 0,00 h 8,1 km/h (2 Bft)
03.05.2011 09:00 18,3 C 8,0 C 4,1 UV-I 6,6 C 40 % 58 % 100 % 1014,6 hPa 0,0 l/m 5,9 km/h (2 Bft) 1,00 h 0,00 h 6,0 km/h (2 Bft)
03.05.2011 10:00 18,3 C 9,5 C 6,5 UV-I 6,5 C 39 % 54 % 100 % 1015,2 hPa 0,0 l/m 8,5 km/h (2 Bft) 1,00 h 0,00 h 9,4 km/h (2 Bft)
03.05.2011 11:00 18,4 C 11,1 C 7,3 UV-I 6,5 C 39 % 51 % 100 % 1015,3 hPa 0,0 l/m 9,7 km/h (2 Bft) 1,00 h 0,00 h 12,2 km/h (2 Bft)
03.05.2011 12:00 18,8 C 12,8 C 1,5 UV-I 6,4 C 39 % 44 % 100 % 1015,4 hPa 0,0 l/m 8,3 km/h (2 Bft) 1,00 h 0,00 h 8,5 km/h (2 Bft)
03.05.2011 13:00 19,3 C 14,1 C 5,3 UV-I 5,6 C 38 % 37 % 100 % 1015,7 hPa 0,0 l/m 9,5 km/h (2 Bft) 1,00 h 0,00 h 9,5 km/h (2 Bft)
03.05.2011 14:00 20,8 C 15,2 C 6,7 UV-I 5,7 C 37 % 32 % 100 % 1016,1 hPa 0,0 l/m 8,5 km/h (2 Bft) 1,00 h 0,00 h 10,3 km/h (2 Bft)
03.05.2011 15:00 22,3 C 15,9 C 6,9 UV-I 6,1 C 35 % 30 % 100 % 1016,8 hPa 0,0 l/m 6,5 km/h (2 Bft) 1,00 h 0,00 h 7,6 km/h (2 Bft)
03.05.2011 16:00 23,2 C 16,1 C 6,0 UV-I 5,8 C 33 % 30 % 100 % 1016,9 hPa 0,0 l/m 6,3 km/h (2 Bft) 1,00 h 0,00 h 7,2 km/h (2 Bft)
03.05.2011 17:00 23,7 C 15,3 C 3,1 UV-I 5,0 C 32 % 30 % 100 % 1017,0 hPa 0,0 l/m 8,0 km/h (2 Bft) 1,00 h 0,00 h 8,2 km/h (2 Bft)
03.05.2011 18:00 23,3 C 14,4 C 0,7 UV-I 1,5 C 32 % 29 % 42 % 1016,8 hPa 0,0 l/m 6,6 km/h (2 Bft) 0,27 h 0,00 h 8,5 km/h (2 Bft)
03.05.2011 19:00 22,5 C 13,7 C 0,1 UV-I 0,0 C 33 % 29 % 0 % 1016,5 hPa 0,0 l/m 5,3 km/h (1 Bft) 0,00 h 0,00 h 5,4 km/h (1 Bft)
03.05.2011 20:00 21,7 C 12,5 C 0,0 UV-I 0,0 C 34 % 31 % 0 % 1016,5 hPa 0,0 l/m 3,1 km/h (1 Bft) 0,00 h 0,00 h 3,5 km/h (1 Bft)
03.05.2011 21:00 20,8 C 10,3 C 0,0 UV-I 0,0 C 35 % 40 % 0 % 1016,8 hPa 0,0 l/m 0,0 km/h (0 Bft) 0,00 h 0,00 h 0,0 km/h (0 Bft)
03.05.2011 22:00 20,2 C 8,2 C 0,0 UV-I 0,0 C 36 % 47 % 0 % 1017,2 hPa 0,0 l/m 0,0 km/h (0 Bft) 0,00 h 0,00 h 0,0 km/h (0 Bft)
03.05.2011 23:00 19,7 C 6,7 C 0,0 UV-I 0,0 C 36 % 54 % 0 % 1017,2 hPa 0,0 l/m 0,0 km/h (0 Bft) 0,00 h 0,00 h 0,1 km/h (0 Bft)
04.05.2011 00:00 19,3 C 6,4 C 0,0 UV-I 0,0 C 37 % 59 % 0 % 1017,7 hPa 0,0 l/m 4,5 km/h (1 Bft) 0,00 h 0,00 h 6,2 km/h (2 Bft)
04.05.2011 01:00 18,9 C 6,8 C 0,0 UV-I 0,0 C 38 % 60 % 0 % 1018,3 hPa 0,0 l/m 4,6 km/h (1 Bft) 0,00 h 0,00 h 5,2 km/h (1 Bft)
04.05.2011 02:00 18,7 C 5,6 C 0,0 UV-I 0,0 C 38 % 63 % 0 % 1018,4 hPa 0,0 l/m 0,7 km/h (0 Bft) 0,00 h 0,00 h 0,5 km/h (0 Bft)
04.05.2011 03:00 18,4 C 4,3 C 0,0 UV-I 0,0 C 38 % 67 % 0 % 1018,3 hPa 0,0 l/m 0,0 km/h (0 Bft) 0,00 h 0,00 h 0,0 km/h (0 Bft)
04.05.2011 04:00 18,2 C 3,5 C 0,0 UV-I 0,0 C 39 % 72 % 0 % 1018,4 hPa 0,0 l/m 0,0 km/h (0 Bft) 0,00 h 0,00 h 0,0 km/h (0 Bft)
04.05.2011 05:00 18,0 C 2,9 C 0,0 UV-I 0,0 C 39 % 75 % 0 % 1018,4 hPa 0,0 l/m 0,0 km/h (0 Bft) 0,00 h 0,00 h 0,0 km/h (0 Bft)
04.05.2011 06:00 17,8 C 2,5 C 0,0 UV-I 0,0 C 39 % 78 % 0 % 1018,8 hPa 0,0 l/m 0,0 km/h (0 Bft) 0,00 h 0,00 h 0,0 km/h (0 Bft)
04.05.2011 07:00 17,7 C 3,4 C 0,0 UV-I 0,0 C 40 % 80 % 0 % 1019,2 hPa 0,0 l/m 0,2 km/h (0 Bft) 0,00 h 0,00 h 0,4 km/h (0 Bft)
04.05.2011 08:00 17,7 C 6,1 C 0,7 UV-I 3,4 C 40 % 79 % 57 % 1019,9 hPa 0,0 l/m 3,2 km/h (1 Bft) 0,53 h 0,00 h 3,7 km/h (1 Bft)
04.05.2011 09:00 17,9 C 9,6 C 5,1 UV-I 6,9 C 42 % 70 % 100 % 1020,2 hPa 0,0 l/m 6,3 km/h (2 Bft) 1,00 h 0,00 h 7,1 km/h (2 Bft)
04.05.2011 10:00 18,0 C 11,2 C 6,3 UV-I 7,4 C 42 % 62 % 100 % 1020,4 hPa 0,0 l/m 5,7 km/h (1 Bft) 1,00 h 0,00 h 7,6 km/h (2 Bft)
04.05.2011 11:00 18,3 C 12,4 C 6,1 UV-I 6,4 C 41 % 52 % 100 % 1020,7 hPa 0,0 l/m 7,2 km/h (2 Bft) 1,00 h 0,00 h 8,2 km/h (2 Bft)
04.05.2011 12:00 18,6 C 13,0 C 2,1 UV-I 4,8 C 41 % 48 % 94 % 1020,6 hPa 0,0 l/m 6,7 km/h (2 Bft) 0,80 h 0,00 h 7,7 km/h (2 Bft)
04.05.2011 13:00 19,0 C 13,5 C 2,0 UV-I 4,0 C 40 % 47 % 92 % 1020,8 hPa 0,0 l/m 5,6 km/h (1 Bft) 0,77 h 0,00 h 5,6 km/h (1 Bft)
04.05.2011 14:00 19,4 C 13,9 C 2,7 UV-I 4,2 C 40 % 45 % 92 % 1021,0 hPa 0,0 l/m 6,0 km/h (2 Bft) 0,73 h 0,00 h 7,0 km/h (2 Bft)
04.05.2011 15:00 20,1 C 14,8 C 3,4 UV-I 4,3 C 39 % 43 % 94 % 1021,3 hPa 0,0 l/m 6,3 km/h (2 Bft) 0,87 h 0,00 h 7,1 km/h (2 Bft)
04.05.2011 16:00 21,5 C 15,6 C 4,5 UV-I 5,3 C 37 % 41 % 95 % 1021,7 hPa 0,0 l/m 6,2 km/h (2 Bft) 0,87 h 0,00 h 6,1 km/h (2 Bft)
04.05.2011 17:00 21,8 C 14,9 C 1,0 UV-I 3,4 C 36 % 41 % 74 % 1021,4 hPa 0,0 l/m 6,3 km/h (2 Bft) 0,53 h 0,00 h 6,7 km/h (2 Bft)
04.05.2011 18:00 21,5 C 14,4 C 0,0 UV-I 0,7 C 36 % 42 % 19 % 1021,2 hPa 0,0 l/m 4,3 km/h (1 Bft) 0,00 h 0,00 h 4,8 km/h (1 Bft)
04.05.2011 19:00 20,8 C 13,9 C 0,0 UV-I 0,2 C 37 % 46 % 5 % 1021,0 hPa 0,0 l/m 7,0 km/h (2 Bft) 0,00 h 0,00 h 7,0 km/h (2 Bft)
04.05.2011 20:00 20,3 C 12,9 C 0,0 UV-I 0,0 C 38 % 52 % 0 % 1021,2 hPa 0,0 l/m 5,0 km/h (1 Bft) 0,00 h 0,00 h 5,0 km/h (1 Bft)
04.05.2011 21:00 19,7 C 11,0 C 0,0 UV-I 0,0 C 39 % 58 % 0 % 1021,6 hPa 0,0 l/m 0,1 km/h (0 Bft) 0,00 h 0,00 h 0,0 km/h (0 Bft)
04.05.2011 22:00 19,3 C 8,9 C 0,0 UV-I 0,0 C 41 % 65 % 0 % 1021,9 hPa 0,0 l/m 0,0 km/h (0 Bft) 0,00 h 0,40 h 0,0 km/h (0 Bft)
04.05.2011 23:00 18,9 C 7,4 C 0,0 UV-I 0,0 C 41 % 72 % 0 % 1022,5 hPa 0,0 l/m 0,0 km/h (0 Bft) 0,00 h 0,43 h 0,0 km/h (0 Bft)
05.05.2011 00:00 18,6 C 6,4 C 0,0 UV-I 0,0 C 42 % 76 % 0 % 1022,4 hPa 0,0 l/m 0,0 km/h (0 Bft) 0,00 h 0,20 h 0,0 km/h (0 Bft)
05.05.2011 01:00 18,3 C 5,5 C 0,0 UV-I 0,0 C 43 % 80 % 0 % 1022,5 hPa 0,0 l/m 0,0 km/h (0 Bft) 0,00 h 0,57 h 0,0 km/h (0 Bft)
05.05.2011 02:00 18,1 C 4,8 C 0,0 UV-I 0,0 C 43 % 82 % 0 % 1022,4 hPa 0,0 l/m 0,0 km/h (0 Bft) 0,00 h 0,73 h 0,0 km/h (0 Bft)
05.05.2011 03:00 17,9 C 4,3 C 0,0 UV-I 0,0 C 43 % 84 % 0 % 1022,1 hPa 0,0 l/m 0,1 km/h (0 Bft) 0,00 h 0,87 h 0,4 km/h (0 Bft)
05.05.2011 04:00 17,7 C 3,6 C 0,0 UV-I 0,0 C 43 % 85 % 0 % 1022,2 hPa 0,0 l/m 0,0 km/h (0 Bft) 0,00 h 1,00 h 0,0 km/h (0 Bft)
05.05.2011 05:00 17,6 C 3,2 C 0,0 UV-I 0,0 C 43 % 86 % 0 % 1022,4 hPa 0,0 l/m 0,0 km/h (0 Bft) 0,00 h 1,00 h 0,0 km/h (0 Bft)
05.05.2011 06:00 17,4 C 2,9 C 0,0 UV-I 0,0 C 43 % 87 % 0 % 1022,6 hPa 0,0 l/m 0,0 km/h (0 Bft) 0,00 h 0,80 h 0,0 km/h (0 Bft)
05.05.2011 07:00 17,3 C 4,3 C 0,0 UV-I 0,0 C 44 % 89 % 0 % 1022,7 hPa 0,0 l/m 0,9 km/h (0 Bft) 0,00 h 0,27 h 1,4 km/h (1 Bft)
05.05.2011 08:00 17,4 C 7,0 C 0,0 UV-I 2,8 C 44 % 87 % 55 % 1023,0 hPa 0,0 l/m 3,2 km/h (1 Bft) 0,50 h 0,00 h 4,8 km/h (1 Bft)
05.05.2011 09:00 17,6 C 10,6 C 2,6 UV-I 6,5 C 45 % 77 % 100 % 1023,3 hPa 0,0 l/m 3,5 km/h (1 Bft) 1,00 h 0,00 h 4,4 km/h (1 Bft)
05.05.2011 10:00 17,8 C 13,4 C 6,0 UV-I 7,2 C 45 % 63 % 100 % 1023,3 hPa 0,0 l/m 3,0 km/h (1 Bft) 1,00 h 0,00 h 4,1 km/h (1 Bft)
05.05.2011 11:00 18,0 C 15,4 C 6,6 UV-I 6,9 C 45 % 51 % 100 % 1023,2 hPa 0,0 l/m 4,7 km/h (1 Bft) 1,00 h 0,00 h 6,2 km/h (2 Bft)
05.05.2011 12:00 18,4 C 16,8 C 2,4 UV-I 6,5 C 44 % 41 % 100 % 1023,2 hPa 0,0 l/m 5,7 km/h (1 Bft) 1,00 h 0,00 h 6,5 km/h (2 Bft)
05.05.2011 13:00 19,0 C 17,8 C 4,4 UV-I 5,3 C 43 % 38 % 100 % 1023,0 hPa 0,0 l/m 6,0 km/h (2 Bft) 1,00 h 0,00 h 6,7 km/h (2 Bft)
05.05.2011 14:00 20,2 C 18,5 C 6,2 UV-I 5,6 C 41 % 37 % 100 % 1022,9 hPa 0,0 l/m 5,7 km/h (1 Bft) 1,00 h 0,00 h 7,5 km/h (2 Bft)
05.05.2011 15:00 21,4 C 19,3 C 5,5 UV-I 4,9 C 39 % 35 % 100 % 1022,8 hPa 0,0 l/m 6,0 km/h (2 Bft) 1,00 h 0,00 h 7,7 km/h (2 Bft)
05.05.2011 16:00 22,1 C 19,9 C 5,3 UV-I 4,8 C 37 % 33 % 100 % 1022,5 hPa 0,0 l/m 5,0 km/h (1 Bft) 1,00 h 0,00 h 6,1 km/h (2 Bft)
05.05.2011 17:00 22,4 C 19,6 C 2,5 UV-I 3,1 C 36 % 33 % 87 % 1022,3 hPa 0,0 l/m 5,4 km/h (1 Bft) 0,73 h 0,00 h 6,5 km/h (2 Bft)
05.05.2011 18:00 22,4 C 19,2 C 1,7 UV-I 1,5 C 36 % 33 % 43 % 1021,7 hPa 0,0 l/m 4,0 km/h (1 Bft) 0,27 h 0,00 h 4,3 km/h (1 Bft)
05.05.2011 19:00 21,9 C 18,6 C 0,4 UV-I 0,0 C 37 % 35 % 0 % 1021,1 hPa 0,0 l/m 1,7 km/h (1 Bft) 0,00 h 0,00 h 1,2 km/h (1 Bft)
05.05.2011 20:00 21,5 C 17,4 C 0,0 UV-I 0,0 C 38 % 38 % 0 % 1020,9 hPa 0,0 l/m 0,9 km/h (0 Bft) 0,00 h 0,00 h 1,5 km/h (1 Bft)
05.05.2011 21:00 21,0 C 15,5 C 0,0 UV-I 0,0 C 39 % 44 % 0 % 1021,0 hPa 0,0 l/m 0,1 km/h (0 Bft) 0,00 h 0,00 h 0,3 km/h (0 Bft)
05.05.2011 22:00 20,4 C 14,4 C 0,0 UV-I 0,0 C 39 % 46 % 0 % 1021,1 hPa 0,0 l/m 0,1 km/h (0 Bft) 0,00 h 0,00 h 0,1 km/h (0 Bft)
05.05.2011 23:00 20,0 C 13,5 C 0,0 UV-I 0,0 C 39 % 49 % 0 % 1021,1 hPa 0,0 l/m 0,7 km/h (0 Bft) 0,00 h 0,00 h 1,7 km/h (1 Bft)
06.05.2011 00:00 19,7 C 12,6 C 0,0 UV-I 0,0 C 39 % 53 % 0 % 1020,9 hPa 0,0 l/m 2,0 km/h (1 Bft) 0,00 h 0,00 h 3,0 km/h (1 Bft)
06.05.2011 01:00 19,5 C 11,6 C 0,0 UV-I 0,0 C 39 % 58 % 0 % 1020,6 hPa 0,0 l/m 2,8 km/h (1 Bft) 0,00 h 0,00 h 3,9 km/h (1 Bft)
06.05.2011 02:00 19,2 C 10,8 C 0,0 UV-I 0,0 C 40 % 60 % 0 % 1020,4 hPa 0,0 l/m 3,1 km/h (1 Bft) 0,00 h 0,00 h 4,1 km/h (1 Bft)
06.05.2011 03:00 18,9 C 10,0 C 0,0 UV-I 0,0 C 40 % 63 % 0 % 1020,3 hPa 0,0 l/m 3,4 km/h (1 Bft) 0,00 h 0,00 h 4,4 km/h (1 Bft)
06.05.2011 04:00 18,6 C 9,4 C 0,0 UV-I 0,0 C 40 % 64 % 0 % 1020,0 hPa 0,0 l/m 4,5 km/h (1 Bft) 0,00 h 0,00 h 6,0 km/h (2 Bft)
06.05.2011 05:00 18,4 C 9,1 C 0,0 UV-I 0,0 C 40 % 64 % 0 % 1019,8 hPa 0,0 l/m 2,1 km/h (1 Bft) 0,00 h 0,00 h 2,5 km/h (1 Bft)
06.05.2011 06:00 18,3 C 8,5 C 0,0 UV-I 0,0 C 40 % 66 % 0 % 1019,9 hPa 0,0 l/m 0,9 km/h (0 Bft) 0,00 h 0,00 h 1,2 km/h (1 Bft)
06.05.2011 07:00 18,2 C 9,2 C 0,2 UV-I 0,0 C 41 % 66 % 0 % 1019,7 hPa 0,0 l/m 1,1 km/h (1 Bft) 0,00 h 0,00 h 2,4 km/h (1 Bft)
06.05.2011 08:00 18,4 C 11,2 C 1,1 UV-I 2,5 C 42 % 63 % 60 % 1019,6 hPa 0,0 l/m 3,5 km/h (1 Bft) 0,50 h 0,00 h 5,5 km/h (1 Bft)
06.05.2011 09:00 18,7 C 14,1 C 4,2 UV-I 4,5 C 42 % 55 % 100 % 1019,7 hPa 0,0 l/m 7,1 km/h (2 Bft) 1,00 h 0,00 h 8,4 km/h (2 Bft)
06.05.2011 10:00 19,1 C 16,4 C 6,2 UV-I 5,1 C 42 % 49 % 100 % 1019,7 hPa 0,0 l/m 7,9 km/h (2 Bft) 1,00 h 0,00 h 8,8 km/h (2 Bft)
06.05.2011 11:00 19,3 C 18,6 C 6,8 UV-I 5,7 C 42 % 44 % 100 % 1019,7 hPa 0,0 l/m 6,6 km/h (2 Bft) 1,00 h 0,00 h 7,2 km/h (2 Bft)
06.05.2011 12:00 19,8 C 20,5 C 3,4 UV-I 5,5 C 42 % 38 % 100 % 1019,4 hPa 0,0 l/m 6,9 km/h (2 Bft) 1,00 h 0,00 h 8,5 km/h (2 Bft)
06.05.2011 13:00 20,5 C 21,7 C 4,2 UV-I 4,5 C 40 % 33 % 100 % 1019,3 hPa 0,0 l/m 5,5 km/h (1 Bft) 1,00 h 0,00 h 6,7 km/h (2 Bft)
06.05.2011 14:00 21,2 C 22,8 C 4,9 UV-I 4,7 C 40 % 32 % 100 % 1019,1 hPa 0,0 l/m 5,3 km/h (1 Bft) 1,00 h 0,00 h 5,9 km/h (2 Bft)
06.05.2011 15:00 22,1 C 23,9 C 5,3 UV-I 4,5 C 38 % 29 % 100 % 1019,1 hPa 0,0 l/m 5,8 km/h (2 Bft) 0,93 h 0,00 h 6,9 km/h (2 Bft)
06.05.2011 16:00 22,6 C 24,4 C 5,3 UV-I 4,1 C 37 % 28 % 100 % 1019,2 hPa 0,0 l/m 4,3 km/h (1 Bft) 1,00 h 0,00 h 5,1 km/h (1 Bft)
06.05.2011 17:00 23,1 C 24,3 C 3,4 UV-I 3,3 C 36 % 28 % 92 % 1019,2 hPa 0,0 l/m 5,2 km/h (1 Bft) 0,87 h 0,00 h 5,6 km/h (1 Bft)
06.05.2011 18:00 23,0 C 23,4 C 1,4 UV-I 0,8 C 36 % 30 % 22 % 1018,9 hPa 0,0 l/m 2,1 km/h (1 Bft) 0,00 h 0,00 h 2,8 km/h (1 Bft)
06.05.2011 19:00 22,6 C 22,7 C 0,6 UV-I 0,0 C 37 % 32 % 0 % 1018,6 hPa 0,0 l/m 0,9 km/h (0 Bft) 0,00 h 0,00 h 0,9 km/h (0 Bft)
06.05.2011 20:00 22,3 C 21,4 C 0,2 UV-I 0,0 C 38 % 36 % 0 % 1018,5 hPa 0,0 l/m 0,1 km/h (0 Bft) 0,00 h 0,00 h 0,1 km/h (0 Bft)
06.05.2011 21:00 22,0 C 18,8 C 0,0 UV-I 0,0 C 39 % 43 % 0 % 1018,5 hPa 0,0 l/m 0,1 km/h (0 Bft) 0,00 h 0,00 h 0,0 km/h (0 Bft)
06.05.2011 22:00 21,5 C 17,5 C 0,0 UV-I 0,0 C 40 % 46 % 0 % 1018,5 hPa 0,0 l/m 0,2 km/h (0 Bft) 0,00 h 0,00 h 0,3 km/h (0 Bft)
06.05.2011 23:00 21,2 C 16,7 C 0,0 UV-I 0,0 C 41 % 48 % 0 % 1018,3 hPa 0,0 l/m 0,8 km/h (0 Bft) 0,00 h 0,00 h 1,2 km/h (1 Bft)
07.05.2011 00:00 21,0 C 16,3 C 0,0 UV-I 0,0 C 41 % 48 % 0 % 1018,1 hPa 0,0 l/m 2,0 km/h (1 Bft) 0,00 h 0,00 h 3,5 km/h (1 Bft)
07.05.2011 01:00 20,8 C 15,8 C 0,0 UV-I 0,0 C 42 % 50 % 0 % 1018,3 hPa 0,0 l/m 3,4 km/h (1 Bft) 0,00 h 0,00 h 4,2 km/h (1 Bft)
07.05.2011 02:00 20,7 C 15,0 C 0,0 UV-I 0,0 C 42 % 52 % 0 % 1018,1 hPa 0,0 l/m 2,6 km/h (1 Bft) 0,00 h 0,00 h 3,7 km/h (1 Bft)
07.05.2011 03:00 20,6 C 14,6 C 0,0 UV-I 0,0 C 42 % 55 % 0 % 1017,8 hPa 0,0 l/m 4,5 km/h (1 Bft) 0,00 h 0,00 h 5,5 km/h (1 Bft)
07.05.2011 04:00 20,4 C 14,3 C 0,0 UV-I 0,0 C 42 % 55 % 0 % 1017,8 hPa 0,0 l/m 5,5 km/h (1 Bft) 0,00 h 0,00 h 6,7 km/h (2 Bft)
07.05.2011 05:00 20,3 C 14,0 C 0,0 UV-I 0,0 C 42 % 55 % 0 % 1017,5 hPa 0,0 l/m 6,6 km/h (2 Bft) 0,00 h 0,00 h 7,3 km/h (2 Bft)
07.05.2011 06:00 20,1 C 13,7 C 0,1 UV-I 0,0 C 41 % 55 % 0 % 1017,5 hPa 0,0 l/m 6,1 km/h (2 Bft) 0,00 h 0,00 h 7,9 km/h (2 Bft)
07.05.2011 07:00 20,0 C 14,2 C 0,7 UV-I 0,0 C 41 % 55 % 0 % 1017,5 hPa 0,0 l/m 6,9 km/h (2 Bft) 0,00 h 0,00 h 8,0 km/h (2 Bft)
07.05.2011 08:00 20,0 C 16,0 C 1,7 UV-I 2,3 C 41 % 52 % 58 % 1017,6 hPa 0,0 l/m 8,2 km/h (2 Bft) 0,50 h 0,00 h 8,9 km/h (2 Bft)
07.05.2011 09:00 20,1 C 18,7 C 5,8 UV-I 4,7 C 42 % 48 % 100 % 1017,6 hPa 0,0 l/m 9,4 km/h (2 Bft) 1,00 h 0,00 h 11,5 km/h (2 Bft)
07.05.2011 10:00 20,4 C 21,1 C 6,8 UV-I 4,9 C 43 % 45 % 100 % 1017,7 hPa 0,0 l/m 8,8 km/h (2 Bft) 1,00 h 0,00 h 9,2 km/h (2 Bft)
07.05.2011 11:00 20,7 C 23,1 C 7,1 UV-I 4,8 C 44 % 42 % 100 % 1017,7 hPa 0,0 l/m 10,5 km/h (2 Bft) 1,00 h 0,00 h 11,4 km/h (2 Bft)
07.05.2011 12:00 21,2 C 24,8 C 3,3 UV-I 4,5 C 44 % 40 % 100 % 1017,7 hPa 0,0 l/m 9,3 km/h (2 Bft) 1,00 h 0,00 h 10,0 km/h (2 Bft)
07.05.2011 13:00 21,8 C 27,0 C 5,2 UV-I 4,3 C 45 % 36 % 97 % 1017,3 hPa 0,0 l/m 9,0 km/h (2 Bft) 0,97 h 0,00 h 10,6 km/h (2 Bft)
07.05.2011 14:00 22,9 C 28,6 C 7,2 UV-I 4,2 C 42 % 29 % 100 % 1017,5 hPa 0,0 l/m 11,9 km/h (2 Bft) 1,00 h 0,00 h 13,9 km/h (3 Bft)
07.05.2011 15:00 24,1 C 29,1 C 8,2 UV-I 3,9 C 39 % 27 % 100 % 1017,9 hPa 0,0 l/m 12,1 km/h (2 Bft) 1,00 h 0,00 h 14,0 km/h (3 Bft)
07.05.2011 16:00 25,0 C 29,3 C 7,3 UV-I 3,3 C 37 % 28 % 93 % 1017,7 hPa 0,0 l/m 11,7 km/h (2 Bft) 0,93 h 0,00 h 12,9 km/h (3 Bft)
07.05.2011 17:00 25,2 C 28,7 C 3,9 UV-I 2,3 C 37 % 29 % 65 % 1017,0 hPa 0,0 l/m 10,1 km/h (2 Bft) 0,03 h 0,00 h 10,4 km/h (2 Bft)
07.05.2011 18:00 25,0 C 27,4 C 1,7 UV-I 0,3 C 38 % 31 % 8 % 1016,7 hPa 0,0 l/m 10,3 km/h (2 Bft) 0,00 h 0,10 h 11,3 km/h (2 Bft)
07.05.2011 19:00 24,5 C 26,6 C 1,0 UV-I 0,0 C 39 % 34 % 1 % 1016,4 hPa 0,0 l/m 6,9 km/h (2 Bft) 0,00 h 0,10 h 7,6 km/h (2 Bft)
07.05.2011 20:00 24,1 C 25,1 C 0,3 UV-I 0,0 C 40 % 36 % 0 % 1016,6 hPa 0,0 l/m 4,3 km/h (1 Bft) 0,00 h 0,97 h 5,6 km/h (1 Bft)
07.05.2011 21:00 23,8 C 23,1 C 0,0 UV-I 0,0 C 40 % 39 % 0 % 1016,8 hPa 0,0 l/m 2,0 km/h (1 Bft) 0,00 h 0,07 h 2,7 km/h (1 Bft)
07.05.2011 22:00 23,6 C 21,9 C 0,0 UV-I 0,0 C 41 % 41 % 0 % 1017,1 hPa 0,0 l/m 3,3 km/h (1 Bft) 0,00 h 0,00 h 4,5 km/h (1 Bft)
07.05.2011 23:00 23,3 C 21,1 C 0,0 UV-I 0,0 C 42 % 42 % 0 % 1017,4 hPa 0,0 l/m 4,4 km/h (1 Bft) 0,00 h 0,00 h 5,1 km/h (1 Bft)
08.05.2011 00:00 23,1 C 20,1 C 0,1 UV-I 0,0 C 42 % 44 % 0 % 1017,5 hPa 0,0 l/m 3,7 km/h (1 Bft) 0,00 h 0,00 h 5,7 km/h (1 Bft)
08.05.2011 01:00 22,8 C 19,5 C 0,0 UV-I 0,0 C 43 % 45 % 0 % 1017,4 hPa 0,0 l/m 4,8 km/h (1 Bft) 0,00 h 0,00 h 6,0 km/h (2 Bft)
08.05.2011 02:00 22,6 C 18,3 C 0,0 UV-I 0,0 C 42 % 47 % 0 % 1017,5 hPa 0,0 l/m 4,1 km/h (1 Bft) 0,00 h 0,00 h 4,9 km/h (1 Bft)
08.05.2011 03:00 22,4 C 17,5 C 0,0 UV-I 0,0 C 42 % 48 % 0 % 1017,1 hPa 0,0 l/m 4,1 km/h (1 Bft) 0,00 h 0,00 h 5,5 km/h (1 Bft)
08.05.2011 04:00 22,2 C 17,3 C 0,0 UV-I 0,0 C 42 % 45 % 0 % 1016,9 hPa 0,0 l/m 5,7 km/h (1 Bft) 0,00 h 0,00 h 7,2 km/h (2 Bft)
08.05.2011 05:00 22,1 C 17,2 C 0,0 UV-I 0,0 C 42 % 42 % 0 % 1016,9 hPa 0,0 l/m 6,6 km/h (2 Bft) 0,00 h 0,00 h 7,9 km/h (2 Bft)
08.05.2011 06:00 22,0 C 17,2 C 0,0 UV-I 0,0 C 41 % 39 % 0 % 1017,2 hPa 0,0 l/m 9,8 km/h (2 Bft) 0,00 h 0,00 h 11,9 km/h (2 Bft)
08.05.2011 07:00 21,9 C 17,6 C 0,3 UV-I 0,0 C 41 % 40 % 0 % 1017,5 hPa 0,0 l/m 9,4 km/h (2 Bft) 0,00 h 0,00 h 10,7 km/h (2 Bft)
08.05.2011 08:00 22,0 C 18,7 C 1,4 UV-I 1,7 C 41 % 39 % 49 % 1018,0 hPa 0,0 l/m 11,5 km/h (2 Bft) 0,17 h 0,00 h 13,2 km/h (3 Bft)
08.05.2011 09:00 22,1 C 19,5 C 3,4 UV-I 1,5 C 40 % 39 % 42 % 1018,5 hPa 0,0 l/m 11,3 km/h (2 Bft) 0,17 h 0,00 h 11,1 km/h (2 Bft)
08.05.2011 10:00 22,2 C 22,3 C 6,6 UV-I 4,9 C 40 % 35 % 100 % 1018,6 hPa 0,0 l/m 10,8 km/h (2 Bft) 1,00 h 0,00 h 11,3 km/h (2 Bft)
08.05.2011 11:00 22,4 C 23,9 C 6,7 UV-I 4,1 C 40 % 33 % 97 % 1018,7 hPa 0,0 l/m 12,4 km/h (3 Bft) 0,93 h 0,00 h 14,9 km/h (3 Bft)
08.05.2011 12:00 22,7 C 25,3 C 3,2 UV-I 3,2 C 40 % 32 % 84 % 1018,8 hPa 0,0 l/m 11,6 km/h (2 Bft) 0,57 h 0,00 h 13,0 km/h (3 Bft)
08.05.2011 13:00 23,1 C 27,0 C 6,3 UV-I 4,2 C 40 % 30 % 99 % 1018,6 hPa 0,0 l/m 13,2 km/h (3 Bft) 0,97 h 0,00 h 16,0 km/h (3 Bft)
08.05.2011 14:00 24,1 C 28,8 C 7,9 UV-I 4,2 C 39 % 26 % 100 % 1018,6 hPa 0,0 l/m 12,9 km/h (3 Bft) 1,00 h 0,00 h 12,9 km/h (3 Bft)
08.05.2011 15:00 25,1 C 29,0 C 7,4 UV-I 3,0 C 37 % 25 % 84 % 1019,0 hPa 0,0 l/m 14,7 km/h (3 Bft) 0,53 h 0,00 h 16,1 km/h (3 Bft)
08.05.2011 16:00 25,4 C 28,1 C 4,1 UV-I 1,3 C 36 % 26 % 37 % 1019,0 hPa 0,0 l/m 10,7 km/h (2 Bft) 0,07 h 0,00 h 10,9 km/h (2 Bft)
08.05.2011 17:00 25,3 C 28,5 C 3,8 UV-I 2,3 C 36 % 26 % 65 % 1018,7 hPa 0,0 l/m 10,2 km/h (2 Bft) 0,03 h 0,00 h 11,8 km/h (2 Bft)
08.05.2011 18:00 25,4 C 28,2 C 2,2 UV-I 1,3 C 36 % 26 % 36 % 1018,6 hPa 0,0 l/m 11,1 km/h (2 Bft) 0,00 h 0,00 h 11,7 km/h (2 Bft)
08.05.2011 19:00 25,1 C 26,9 C 1,1 UV-I 0,0 C 37 % 27 % 0 % 1018,3 hPa 0,0 l/m 9,5 km/h (2 Bft) 0,00 h 0,00 h 10,4 km/h (2 Bft)
08.05.2011 20:00 24,7 C 25,7 C 0,3 UV-I 0,0 C 37 % 27 % 0 % 1018,4 hPa 0,0 l/m 7,5 km/h (2 Bft) 0,00 h 0,00 h 8,1 km/h (2 Bft)
08.05.2011 21:00 24,5 C 24,1 C 0,0 UV-I 0,0 C 38 % 30 % 0 % 1019,0 hPa 0,0 l/m 5,8 km/h (2 Bft) 0,00 h 0,00 h 7,8 km/h (2 Bft)
08.05.2011 22:00 24,2 C 23,1 C 0,0 UV-I 0,0 C 38 % 32 % 0 % 1019,2 hPa 0,0 l/m 5,5 km/h (1 Bft) 0,00 h 0,00 h 7,0 km/h (2 Bft)
08.05.2011 23:00 24,0 C 21,7 C 0,1 UV-I 0,0 C 38 % 34 % 0 % 1019,7 hPa 0,0 l/m 3,4 km/h (1 Bft) 0,00 h 0,00 h 3,7 km/h (1 Bft)
Min-Datum _ 05.05.11 04.05.11 02.05.11 02.05.11 03.05.11 08.05.11 02.05.11 02.05.11 - 02.05.11 - - 02.05.11
_ Min-Zeit 06:42 06:44 00:00 00:00 17:02 14:38 00:00 19:06 - 05:16 - - 00:06
Minimum _ 17,2 C 2,3 C 0,0 UV-I 0,0 C 32 % 25 % 0 % 1009,6 hPa - 0,0 km/h (0 Bft) - - 0,0 km/h (0 Bft)
Max-Datum _ 08.05.11 07.05.11 08.05.11 04.05.11 05.05.11 05.05.11 02.05.11 05.05.11 02.05.11 08.05.11 02.05.11 04.05.11 03.05.11
_ Max-Zeit 16:02 16:04 11:28 11:02 08:44 07:02 08:34 10:26 00:00 15:16 08:32 22:06 11:08
Maximum _ 25,6 C 29,5 C 9,3 UV-I 8,6 C 45 % 89 % 100 % 1023,5 hPa 0,0 l/m 17,7 km/h
N-NO (3 Bft)
0,03 h 0,03 h 38,3 km/h
S (5 Bft)
Durchschnitt _ 20,8 C 14,9 C 2,0 UV-I 2,0 C 40 % 49 % 39 % 1017,6 hPa #0,0 l/m 5,2 km/h (1 Bft) #59:46 h #7:34 h 6,1 km/h (2 Bft)
© 2012 W. Hausmann